logo tempoitalia

Diretta Meteo Osijek, Croazialunedì 31 agosto ore 07:00

Mappa
Sereno 19 °C Sereno 24 Ore: T.min 17 T.max 34
Ponente Nord Km/h 3.7 Punto di rugiada: 13 °C Umidità: 68% Visibilità: 10 Km
Il sole sorge alle: 06:04 Il sole tramonta alle: 19:25
31 Agosto 2026 07:00 tempo osservato: Sereno Sereno 19 68 1014 vento: Nord N 3.7
31 Agosto 2026 06:30 tempo osservato: Sereno Sereno 17 77 1014 vento: Nord N 5.5
31 Agosto 2026 06:00 tempo osservato: Sereno Sereno 17 77 1014 vento: Nord N/NE 9.3
31 Agosto 2026 05:30 tempo osservato: Sereno Sereno 17 72 1014 vento: Nord N/NE 9.3
30 Agosto 2026 22:00 tempo osservato: Sereno Sereno 21 60 1015 vento: Nord E 11.1
30 Agosto 2026 21:30 tempo osservato: Sereno Sereno 21 60 1015 vento: Nord NE 7.4
30 Agosto 2026 21:00 tempo osservato: Sereno Sereno 22 53 1015 vento: Nord N/NE 9.3
30 Agosto 2026 20:30 tempo osservato: Sereno Sereno 24 47 1015 vento: Nord N/NE 9.3
30 Agosto 2026 20:00 tempo osservato: Sereno Sereno 26 44 1014 vento: Nord N 9.3
30 Agosto 2026 19:30 tempo osservato: Sereno Sereno 29 35 1014 vento: Nord N 7.4
30 Agosto 2026 19:00 tempo osservato: Sereno Sereno 32 27 1014 vento: Nord N/NE 7.4
30 Agosto 2026 18:30 tempo osservato: Sereno Sereno 33 26 1014 vento: Nord E/NE 9.3
30 Agosto 2026 18:00 tempo osservato: Sereno Sereno 34 24 1014 vento: Nord NE 11.1
30 Agosto 2026 17:30 tempo osservato: Sereno Sereno 34 24 1014 vento: Nord E/NE 9.3
30 Agosto 2026 17:00 tempo osservato: Sereno Sereno 34 24 1014 vento: Nord N/NE 11.1
30 Agosto 2026 16:30 tempo osservato: Sereno Sereno 34 24 1015 vento: Nord N 7.4
30 Agosto 2026 16:00 tempo osservato: Sereno Sereno 34 26 1015 vento: Nord N 9.3
30 Agosto 2026 15:30 tempo osservato: Sereno Sereno 33 27 1015 vento: Nord E/NE 9.3
30 Agosto 2026 15:00 tempo osservato: Sereno Sereno 34 26 1015 vento: Nord N 7.4
30 Agosto 2026 14:30 tempo osservato: Sereno Sereno 33 29 1016 vento: Nord NE 11.1
30 Agosto 2026 14:00 tempo osservato: Sereno Sereno 32 29 1016 vento: Nord N 9.3
30 Agosto 2026 13:30 tempo osservato: Sereno Sereno 32 31 1016 vento: Nord N 7.4
30 Agosto 2026 13:00 tempo osservato: Sereno Sereno 32 29 1016 vento: Nord N 9.3
30 Agosto 2026 12:30 tempo osservato: Sereno Sereno 31 31 1016 vento: Nord E/NE 11.1
30 Agosto 2026 12:00 tempo osservato: Sereno Sereno 32 29 1017 vento: Nord N/NE 11.1
30 Agosto 2026 11:30 tempo osservato: Sereno Sereno 31 33 1017 vento: Nord E/NE 9.3
30 Agosto 2026 11:00 tempo osservato: Sereno Sereno 30 35 1017 vento: Nord E 9.3
30 Agosto 2026 10:30 tempo osservato: Sereno Sereno 30 37 1017 vento: Nord E/NE 7.4
30 Agosto 2026 10:00 tempo osservato: Sereno Sereno 29 42 1017 vento: Nord N 5.5
30 Agosto 2026 09:30 tempo osservato: Sereno Sereno 29 39 1017 vento: Nord N 5.5
30 Agosto 2026 09:00 tempo osservato: Sereno Sereno 28 45 1017 vento: Nord N 1.8
30 Agosto 2026 08:30 tempo osservato: Sereno Sereno 25 57 1017 vento: Nord N 0
30 Agosto 2026 08:00 tempo osservato: Sereno Sereno 22 68 1017 vento: Nord N 1.8